createdAt,value
2023-05-11T04:02:01.517Z,100155.00
2023-05-11T04:04:30.622Z,99824.00
2023-05-11T04:06:58.986Z,99751.00
2023-05-11T04:09:27.093Z,100051.00
2023-05-11T04:11:55.163Z,99931.00
2023-05-11T04:14:23.247Z,172384.00
2023-05-11T04:16:51.599Z,100189.00
2023-05-11T04:19:21.287Z,99378.00
2023-05-11T04:21:49.674Z,99288.00
2023-05-11T04:24:17.975Z,171399.00
2023-05-11T04:26:45.937Z,232494.00
2023-05-11T04:29:14.233Z,232494.00
2023-05-11T04:31:42.775Z,232494.00
2023-05-11T04:34:11.129Z,99550.00
2023-05-11T04:36:41.998Z,99497.00
2023-05-11T04:39:10.157Z,99176.00
2023-05-11T04:41:38.505Z,99264.00
2023-05-11T04:44:07.230Z,99377.00
2023-05-11T04:46:35.742Z,172644.00
2023-05-11T04:49:04.200Z,232494.00
2023-05-11T04:51:32.471Z,99934.00
2023-05-11T04:54:02.154Z,100529.00
2023-05-11T04:56:30.471Z,172914.00
2023-05-11T04:58:58.504Z,100522.00
2023-05-11T05:01:26.864Z,100499.00
2023-05-11T05:03:55.053Z,100383.00
2023-05-11T05:06:23.704Z,99279.00
2023-05-11T05:08:51.841Z,100181.00
2023-05-11T05:11:21.589Z,99503.00
2023-05-11T05:13:49.681Z,99343.00
2023-05-11T05:16:17.758Z,99683.00
2023-05-11T05:18:46.536Z,99288.00
2023-05-11T05:21:14.781Z,99210.00
2023-05-11T05:23:42.838Z,172745.00
2023-05-11T05:26:11.622Z,232494.00
2023-05-11T05:28:41.378Z,232494.00
2023-05-11T05:31:09.787Z,232494.00
2023-05-11T05:33:38.190Z,232494.00
2023-05-11T05:36:06.702Z,232494.00
2023-05-11T05:38:34.726Z,232494.00
2023-05-11T05:41:03.339Z,232494.00
2023-05-11T05:43:31.322Z,232494.00
2023-05-11T05:46:00.774Z,232494.00
2023-05-11T05:48:29.181Z,232494.00
2023-05-11T05:50:57.751Z,232494.00
2023-05-11T05:53:26.053Z,232494.00
2023-05-11T05:55:54.088Z,232494.00
2023-05-11T05:58:22.185Z,232494.00
2023-05-11T06:00:50.379Z,232494.00
2023-05-11T06:03:20.187Z,232494.00
2023-05-11T06:05:48.634Z,232494.00
2023-05-11T06:08:16.938Z,232494.00
2023-05-11T06:10:45.008Z,232494.00
2023-05-11T06:13:13.077Z,232494.00
2023-05-11T06:15:43.351Z,232494.00
2023-05-11T06:18:12.310Z,100219.00
2023-05-11T06:20:42.112Z,99996.00
2023-05-11T06:23:10.437Z,99254.00
2023-05-11T06:25:39.157Z,98683.00
2023-05-11T06:28:07.184Z,98642.00
2023-05-11T06:30:35.308Z,172086.00
2023-05-11T06:33:03.683Z,232494.00
2023-05-11T06:35:31.672Z,232494.00
2023-05-11T06:38:01.057Z,232494.00
2023-05-11T06:40:29.438Z,232494.00
2023-05-11T06:42:57.743Z,232494.00
2023-05-11T06:45:26.129Z,232494.00
2023-05-11T06:47:54.443Z,171210.00
2023-05-11T06:50:23.971Z,232494.00
2023-05-11T06:52:54.993Z,232494.00
2023-05-11T06:55:25.379Z,232494.00
2023-05-11T06:57:53.354Z,232494.00
2023-05-11T07:00:22.134Z,232494.00
2023-05-11T07:02:50.522Z,232494.00
2023-05-11T07:05:19.055Z,232494.00
2023-05-11T07:07:47.036Z,232494.00
2023-05-11T07:10:15.050Z,232494.00
2023-05-11T07:12:44.795Z,232494.00
2023-05-11T07:15:13.442Z,232494.00
2023-05-11T07:17:41.609Z,232494.00
2023-05-11T07:20:10.334Z,232494.00
2023-05-11T07:22:38.627Z,232494.00
2023-05-11T07:25:09.513Z,232494.00
2023-05-11T07:27:37.858Z,232494.00
2023-05-11T07:30:08.539Z,232494.00
2023-05-11T07:32:36.514Z,232494.00
2023-05-11T07:35:05.214Z,232494.00
2023-05-11T07:37:33.569Z,232494.00
2023-05-11T07:40:01.554Z,173770.00
2023-05-11T07:42:29.717Z,99373.00
2023-05-11T07:44:57.741Z,99159.00
2023-05-11T07:47:27.159Z,99792.00
2023-05-11T07:49:55.192Z,170807.00
2023-05-11T07:52:23.562Z,232494.00
2023-05-11T07:54:51.599Z,232494.00
2023-05-11T07:57:20.580Z,232494.00
2023-05-11T07:59:49.397Z,232494.00
2023-05-11T08:02:18.807Z,232494.00
2023-05-11T08:04:48.290Z,232494.00
2023-05-11T08:07:16.450Z,232494.00
2023-05-11T08:09:44.459Z,232494.00
2023-05-11T08:12:12.594Z,232494.00
2023-05-11T08:14:43.563Z,232494.00
2023-05-11T08:17:12.792Z,232494.00
2023-05-11T08:19:41.091Z,232494.00
2023-05-11T08:22:10.504Z,232494.00
2023-05-11T08:24:38.792Z,232494.00
2023-05-11T08:27:07.175Z,232494.00
2023-05-11T08:29:35.183Z,100611.00
2023-05-11T08:32:03.511Z,99910.00
2023-05-11T08:34:31.881Z,99792.00
2023-05-11T08:37:01.674Z,100067.00
2023-05-11T08:39:45.952Z,100624.00
2023-05-11T08:42:16.548Z,100262.00
2023-05-11T08:44:45.856Z,100241.00
2023-05-11T08:49:45.862Z,100516.00
2023-05-11T08:52:15.014Z,100309.00
2023-05-11T08:54:44.464Z,100472.00
2023-05-11T08:57:14.422Z,100569.00
2023-05-11T08:59:44.986Z,100455.00
2023-05-11T09:02:17.927Z,100551.00
2023-05-11T09:04:48.961Z,100552.00
2023-05-11T09:07:18.435Z,100285.00
2023-05-11T09:09:48.253Z,100257.00
2023-05-11T09:12:16.916Z,100322.00
2023-05-11T09:14:46.641Z,174467.00
2023-05-11T09:17:15.066Z,100245.00
2023-05-11T09:20:00.007Z,100153.00
2023-05-11T09:22:30.607Z,99973.00
2023-05-11T09:25:02.570Z,100414.00
2023-05-11T09:27:32.176Z,100344.00
2023-05-11T09:30:11.206Z,99894.00
2023-05-11T09:32:47.462Z,99688.00
2023-05-11T09:35:25.567Z,100231.00
2023-05-11T09:38:01.218Z,98896.00
2023-05-11T09:40:34.129Z,99873.00
2023-05-11T09:43:03.291Z,99953.00
2023-05-11T09:45:39.492Z,98477.00
2023-05-11T09:48:08.603Z,100114.00
2023-05-11T09:50:37.258Z,99846.00
2023-05-11T09:53:05.436Z,99692.00
2023-05-11T09:55:35.170Z,171286.00
2023-05-11T09:58:04.515Z,100237.00
2023-05-11T10:00:34.076Z,99903.00
2023-05-11T10:03:06.110Z,99387.00
2023-05-11T10:05:35.361Z,99927.00
2023-05-11T10:08:04.997Z,100420.00
2023-05-11T10:10:35.584Z,100529.00
2023-05-11T10:13:04.303Z,100571.00
2023-05-11T10:15:36.568Z,75262.00
2023-05-11T10:18:07.179Z,74741.00
2023-05-11T10:20:35.459Z,100483.00
2023-05-11T10:23:04.091Z,100464.00
2023-05-11T10:25:32.520Z,100496.00
2023-05-11T10:28:02.187Z,100199.00
2023-05-11T10:30:30.717Z,99939.00
2023-05-11T10:32:59.176Z,99788.00
2023-05-11T10:35:28.142Z,174719.00
2023-05-11T10:37:56.311Z,100357.00
2023-05-11T10:40:24.816Z,100262.00
2023-05-11T10:43:14.725Z,100421.00
2023-05-11T10:45:50.551Z,100061.00
2023-05-11T10:48:35.126Z,100284.00
2023-05-11T10:51:36.705Z,99445.00
2023-05-11T10:54:18.952Z,100529.00
2023-05-11T10:57:13.802Z,99288.00
2023-05-11T10:59:52.525Z,99089.00
2023-05-11T11:02:21.020Z,99256.00
2023-05-11T11:04:51.103Z,98908.00
2023-05-11T11:07:20.897Z,99369.00
2023-05-11T11:09:54.214Z,98694.00
2023-05-11T11:12:22.821Z,99367.00
2023-05-11T11:14:56.850Z,99656.00
2023-05-11T11:17:27.509Z,99156.00
2023-05-11T11:19:56.050Z,100132.00
2023-05-11T11:22:47.395Z,100586.00
2023-05-11T11:25:36.614Z,100387.00
2023-05-11T11:28:05.354Z,100292.00
2023-05-11T11:30:34.781Z,176085.00
2023-05-11T11:33:33.676Z,99720.00
2023-05-11T11:36:02.698Z,99959.00
2023-05-11T11:38:32.455Z,99883.00
2023-05-11T11:41:00.835Z,99576.00
2023-05-11T11:43:43.761Z,99778.00
2023-05-11T11:46:27.106Z,100343.00
2023-05-11T11:49:07.472Z,100537.00
2023-05-11T11:51:37.342Z,100546.00
2023-05-11T11:54:08.625Z,100005.00
2023-05-11T11:56:41.014Z,100022.00
2023-05-11T11:59:13.765Z,100139.00
2023-05-11T12:01:44.969Z,100280.00
2023-05-11T12:04:47.368Z,100353.00
2023-05-11T12:07:16.241Z,100134.00
2023-05-11T12:09:46.872Z,100537.00
2023-05-11T12:12:18.855Z,100374.00
2023-05-11T12:14:49.270Z,100344.00
2023-05-11T12:17:28.386Z,100448.00
2023-05-11T12:20:11.401Z,100649.00
2023-05-11T12:22:39.546Z,100623.00
2023-05-11T12:25:08.802Z,100485.00
2023-05-11T12:27:37.321Z,100677.00
2023-05-11T12:30:06.042Z,180948.00
2023-05-11T12:32:35.484Z,100508.00
2023-05-11T12:35:05.077Z,100498.00
2023-05-11T12:37:33.845Z,100283.00
2023-05-11T12:40:01.913Z,100448.00
2023-05-11T12:42:32.225Z,100409.00
2023-05-11T12:45:01.650Z,100594.00
2023-05-11T12:47:30.490Z,100712.00
2023-05-11T12:49:59.961Z,100766.00
2023-05-11T12:52:28.233Z,100747.00
2023-05-11T12:55:00.169Z,100675.00
2023-05-11T12:57:30.138Z,100751.00
2023-05-11T13:00:10.005Z,100787.00
2023-05-11T13:02:45.161Z,100757.00
2023-05-11T13:05:15.337Z,100728.00
2023-05-11T13:07:44.472Z,100685.00
2023-05-11T13:10:13.227Z,100606.00
2023-05-11T13:12:51.746Z,100679.00
2023-05-11T13:15:21.934Z,100642.00
2023-05-11T13:17:57.115Z,100593.00
2023-05-11T13:20:27.806Z,100756.00
2023-05-11T13:23:05.673Z,100679.00
2023-05-11T13:25:34.498Z,100629.00
2023-05-11T13:28:02.534Z,183457.00
2023-05-11T13:30:32.748Z,100386.00
2023-05-11T13:33:02.273Z,100672.00
2023-05-11T13:35:31.751Z,100565.00
2023-05-11T13:38:00.093Z,100724.00
2023-05-11T13:40:28.201Z,100752.00
2023-05-11T13:42:56.776Z,100700.00
2023-05-11T13:45:25.359Z,100633.00
2023-05-11T13:47:55.317Z,100562.00
2023-05-11T13:50:23.855Z,100610.00
2023-05-11T13:52:53.779Z,100575.00
2023-05-11T13:55:22.124Z,100673.00
2023-05-11T13:57:50.334Z,100668.00
2023-05-11T14:00:19.585Z,100561.00
2023-05-11T14:02:50.398Z,100553.00
2023-05-11T14:05:19.224Z,100583.00
2023-05-11T14:07:49.043Z,100634.00
2023-05-11T14:10:19.495Z,100675.00
2023-05-11T14:12:48.497Z,100631.00
2023-05-11T14:15:16.680Z,100415.00
2023-05-11T14:17:44.885Z,100631.00
2023-05-11T14:20:14.090Z,100645.00
2023-05-11T14:22:42.521Z,100660.00
2023-05-11T14:25:11.112Z,100723.00
2023-05-11T14:27:40.632Z,100720.00
2023-05-11T14:30:09.686Z,100718.00
2023-05-11T14:32:37.842Z,100694.00
2023-05-11T14:35:06.633Z,100639.00
2023-05-11T14:37:35.277Z,100670.00
2023-05-11T14:40:03.757Z,100619.00
2023-05-11T14:42:32.319Z,100710.00
2023-05-11T14:45:01.722Z,100650.00
2023-05-11T14:47:30.103Z,100674.00
2023-05-11T14:49:58.323Z,100574.00
2023-05-11T14:52:26.409Z,100689.00
2023-05-11T14:54:54.616Z,100649.00
2023-05-11T14:57:23.356Z,100646.00
2023-05-11T15:02:27.829Z,100732.00
2023-05-11T15:04:56.048Z,100748.00
2023-05-11T15:07:24.447Z,100728.00
2023-05-11T15:09:52.903Z,100576.00
2023-05-11T15:12:21.305Z,100679.00
2023-05-11T15:14:49.606Z,100710.00
2023-05-11T15:17:17.892Z,100666.00
2023-05-11T15:19:47.562Z,100695.00
2023-05-11T15:22:17.223Z,100670.00
2023-05-11T15:24:45.611Z,100672.00
2023-05-11T15:27:13.928Z,100607.00
2023-05-11T15:29:42.712Z,100661.00
2023-05-11T15:32:12.995Z,100541.00
2023-05-11T15:34:54.964Z,100637.00
2023-05-11T15:37:28.070Z,100678.00
2023-05-11T15:39:56.417Z,100678.00
2023-05-11T15:42:24.804Z,100706.00
2023-05-11T15:44:53.139Z,100777.00
2023-05-11T15:47:21.595Z,100601.00
2023-05-11T15:49:49.692Z,100801.00
2023-05-11T15:52:17.640Z,100803.00
2023-05-11T15:54:47.130Z,100365.00
2023-05-11T15:57:17.002Z,177326.00
2023-05-11T15:59:44.994Z,232494.00
2023-05-11T16:02:13.398Z,232494.00
2023-05-11T16:04:41.780Z,232494.00
2023-05-11T16:07:10.117Z,232494.00
2023-05-11T16:09:38.544Z,232494.00
2023-05-11T16:12:08.723Z,232494.00
2023-05-11T16:14:37.030Z,232494.00
2023-05-11T16:17:05.874Z,232494.00
2023-05-11T16:19:33.961Z,232494.00
2023-05-11T16:22:02.326Z,232494.00
2023-05-11T16:24:34.375Z,232494.00
2023-05-11T16:27:03.163Z,232494.00
2023-05-11T16:29:32.901Z,232494.00
2023-05-11T16:32:01.538Z,232494.00
2023-05-11T16:34:29.683Z,232494.00
2023-05-11T16:36:59.208Z,232494.00
2023-05-11T16:39:28.170Z,232494.00
2023-05-11T16:41:56.329Z,232494.00
2023-05-11T16:44:24.599Z,232494.00
2023-05-11T16:46:54.522Z,232494.00
2023-05-11T16:49:22.575Z,232494.00
2023-05-11T16:51:51.700Z,232494.00
2023-05-11T16:54:20.043Z,232494.00
2023-05-11T16:56:48.126Z,232494.00
2023-05-11T16:59:16.145Z,232494.00
2023-05-11T17:01:45.651Z,232494.00
2023-05-11T17:04:15.159Z,232494.00
2023-05-11T17:06:43.599Z,232494.00
2023-05-11T17:09:11.622Z,232494.00
2023-05-11T17:11:39.605Z,232494.00
2023-05-11T17:14:07.984Z,232494.00
2023-05-11T17:16:36.197Z,232494.00
2023-05-11T17:19:04.663Z,232494.00
2023-05-11T17:21:34.153Z,232494.00
2023-05-11T17:24:02.566Z,232494.00
2023-05-11T17:26:43.216Z,232494.00
2023-05-11T17:29:15.762Z,232494.00
2023-05-11T17:31:46.351Z,232494.00
2023-05-11T17:34:15.028Z,100265.00
2023-05-11T17:36:44.579Z,100349.00
2023-05-11T17:39:13.063Z,174504.00
2023-05-11T17:41:41.390Z,232494.00
2023-05-11T17:44:10.077Z,232494.00
2023-05-11T17:46:38.326Z,232494.00
2023-05-11T17:49:06.766Z,232494.00
2023-05-11T17:51:35.078Z,232494.00
2023-05-11T17:54:04.813Z,232494.00
2023-05-11T17:56:32.835Z,232494.00
2023-05-11T17:59:00.973Z,232494.00
2023-05-11T18:01:29.083Z,232494.00
2023-05-11T18:03:58.896Z,232494.00
2023-05-11T18:06:28.468Z,232494.00
2023-05-11T18:08:56.828Z,232494.00
2023-05-11T18:11:27.116Z,232494.00
2023-05-11T18:13:55.168Z,232494.00
2023-05-11T18:16:23.549Z,232494.00
2023-05-11T18:18:52.342Z,232494.00
2023-05-11T18:21:20.649Z,232494.00
2023-05-11T18:23:48.922Z,232494.00
2023-05-11T18:26:19.170Z,232494.00
2023-05-11T18:28:48.877Z,232494.00
2023-05-11T18:31:18.936Z,232494.00
2023-05-11T18:33:47.590Z,232494.00
2023-05-11T18:36:16.008Z,232494.00
2023-05-11T18:38:44.756Z,232494.00
2023-05-11T18:41:12.815Z,232494.00
2023-05-11T18:43:40.858Z,232494.00
2023-05-11T18:46:10.365Z,232494.00
2023-05-11T18:48:38.994Z,232494.00
2023-05-11T18:51:07.973Z,232494.00
2023-05-11T18:53:36.340Z,232494.00
2023-05-11T18:56:04.809Z,232494.00
2023-05-11T18:58:33.708Z,232494.00
2023-05-11T19:01:02.115Z,232494.00
2023-05-11T19:03:32.354Z,232494.00
2023-05-11T19:06:01.658Z,232494.00
2023-05-11T19:08:31.091Z,232494.00
2023-05-11T19:10:59.343Z,232494.00
2023-05-11T19:13:27.702Z,232494.00
2023-05-11T19:15:55.935Z,232494.00
2023-05-11T19:18:23.972Z,232494.00
2023-05-11T19:20:53.418Z,232494.00
2023-05-11T19:23:21.817Z,232494.00
2023-05-11T19:25:50.205Z,232494.00
2023-05-11T19:28:18.559Z,232494.00
2023-05-11T19:30:46.625Z,232494.00
2023-05-11T19:33:14.912Z,232494.00
2023-05-11T19:35:43.107Z,232494.00
2023-05-11T19:38:12.508Z,232494.00
2023-05-11T19:40:46.073Z,232494.00
2023-05-11T19:43:14.957Z,232494.00
2023-05-11T19:45:43.609Z,232494.00
2023-05-11T19:48:12.035Z,232494.00
2023-05-11T19:50:40.363Z,232494.00
2023-05-11T19:53:08.486Z,232494.00
2023-05-11T19:55:37.862Z,232494.00
2023-05-11T19:58:06.847Z,232494.00
2023-05-11T20:00:35.152Z,232494.00
2023-05-11T20:03:03.265Z,232494.00
2023-05-11T20:05:31.720Z,232494.00
2023-05-11T20:07:59.977Z,232494.00
2023-05-11T20:10:28.305Z,232494.00
2023-05-11T20:12:58.076Z,232494.00
2023-05-11T20:15:26.458Z,232494.00
2023-05-11T20:17:54.852Z,232494.00
2023-05-11T20:20:23.273Z,232494.00
2023-05-11T20:22:51.207Z,232494.00
2023-05-11T20:25:22.245Z,232494.00
2023-05-11T20:27:51.363Z,232494.00
2023-05-11T20:30:21.393Z,232494.00
2023-05-11T20:35:22.296Z,232494.00
2023-05-11T20:37:50.346Z,232494.00
2023-05-11T20:40:18.937Z,232494.00
2023-05-11T20:42:47.214Z,232494.00
2023-05-11T20:45:15.624Z,232494.00
2023-05-11T20:47:45.372Z,232494.00
2023-05-11T20:50:15.570Z,232494.00
2023-05-11T20:52:43.559Z,232494.00
2023-05-11T20:55:11.666Z,232494.00
2023-05-11T20:57:39.984Z,232494.00
